Time;durP1;ratioP1;P1;durP2;ratioP2;P2;SDS_P1;SDS_P2;PMS_P1;PMS_P2;Temp;Humidity;BMP_temperature;BMP_pressure;BME280_temperature;BME280_humidity;BME280_pressure;Samples;Min_cycle;Max_cycle;Signal;HPM_P1;HPM_P2
2022/12/24 00:00:29;;;;;;;3.83;1.38;;;;;;;10.87;85.25;97392.81;4964055;28;20038;-82
2022/12/24 00:02:55;;;;;;;3.88;1.30;;;;;;;10.86;85.13;97393.84;4964723;28;20746;-82
2022/12/24 00:05:20;;;;;;;4.07;1.20;;;;;;;10.88;85.34;97394.44;4964714;28;20030;-82
2022/12/24 00:07:46;;;;;;;2.75;1.33;;;;;;;10.91;85.44;97404.47;4964397;28;20043;-83
2022/12/24 00:10:11;;;;;;;5.13;1.42;;;;;;;10.89;84.91;97404.69;4964408;28;20039;-82
2022/12/24 00:12:37;;;;;;;6.45;1.63;;;;;;;10.84;85.31;97401.91;4965234;28;20465;-83
2022/12/24 00:15:05;;;;;;;7.18;1.67;;;;;;;10.84;86.26;97403.75;4965500;28;20094;-82
2022/12/24 00:17:31;;;;;;;7.30;1.55;;;;;;;10.86;85.16;97405.16;4965543;28;20058;-83
2022/12/24 00:19:56;;;;;;;5.45;1.48;;;;;;;10.85;84.47;97406.13;4964722;28;20034;-83
2022/12/24 00:22:22;;;;;;;3.60;1.30;;;;;;;10.87;84.57;97408.56;4964757;28;20117;-83
2022/12/24 00:24:47;;;;;;;4.18;1.20;;;;;;;10.90;84.56;97421.22;4965157;28;20058;-83
2022/12/24 00:27:13;;;;;;;4.75;1.30;;;;;;;10.90;84.22;97421.22;4964794;28;20047;-83
2022/12/24 00:29:38;;;;;;;3.17;1.25;;;;;;;10.93;84.35;97419.00;4964568;28;20438;-83
2022/12/24 00:32:06;;;;;;;10.05;1.50;;;;;;;10.92;84.89;97421.84;4964874;28;20465;-82
2022/12/24 00:34:33;;;;;;;4.32;1.20;;;;;;;10.87;84.59;97419.84;4965744;28;20377;-83
2022/12/24 00:36:58;;;;;;;3.78;1.63;;;;;;;10.89;85.04;97425.69;4964299;28;20035;-83
2022/12/24 00:39:24;;;;;;;4.13;1.58;;;;;;;10.80;85.26;97416.50;4964178;28;20050;-82
2022/12/24 00:41:49;;;;;;;6.95;1.50;;;;;;;10.87;85.71;97432.97;4964156;28;20039;-83
2022/12/24 00:44:15;;;;;;;3.78;1.30;;;;;;;10.88;85.43;97431.16;4963267;28;20119;-83
2022/12/24 00:46:41;;;;;;;4.72;1.77;;;;;;;10.86;86.21;97418.25;4959689;28;20043;-83
2022/12/24 00:49:09;;;;;;;6.53;1.50;;;;;;;10.90;85.04;97416.78;4964803;28;20035;-83
2022/12/24 00:51:35;;;;;;;4.40;1.40;;;;;;;10.87;85.21;97417.22;4964284;28;20031;-82
2022/12/24 00:54:02;;;;;;;3.80;1.48;;;;;;;10.87;84.77;97427.72;4964728;28;20035;-82
2022/12/24 00:56:27;;;;;;;5.75;1.70;;;;;;;10.81;85.73;97431.22;4963706;28;20031;-82
2022/12/24 00:58:53;;;;;;;5.10;1.77;;;;;;;10.81;84.84;97423.34;4964326;28;20039;-82
2022/12/24 01:01:20;;;;;;;4.55;1.40;;;;;;;10.83;85.28;97434.41;4962741;28;20080;-83
2022/12/24 01:03:46;;;;;;;10.48;2.05;;;;;;;10.77;84.38;97432.66;4963390;28;20038;-83
2022/12/24 01:06:16;;;;;;;4.60;1.55;;;;;;;10.75;84.06;97442.59;4965649;28;20042;-83
2022/12/24 01:08:42;;;;;;;6.32;2.10;;;;;;;10.75;84.02;97445.19;4964251;28;20031;-83
2022/12/24 01:11:09;;;;;;;4.25;1.58;;;;;;;10.79;84.49;97451.59;4964149;28;20046;-83
2022/12/24 01:13:35;;;;;;;5.47;1.73;;;;;;;10.75;83.06;97455.69;4964868;28;20046;-83
2022/12/24 01:16:02;;;;;;;4.90;1.45;;;;;;;10.78;83.08;97463.13;4964821;28;20034;-83
2022/12/24 01:18:27;;;;;;;4.43;1.52;;;;;;;10.76;83.10;97470.41;4963477;28;20070;-82
2022/12/24 01:21:02;;;;;;;4.50;1.40;;;;;;;10.77;82.53;97477.25;4963070;28;20058;-82
2022/12/24 01:23:30;;;;;;;4.82;1.70;;;;;;;10.75;82.65;97479.31;4964652;28;20637;-82
2022/12/24 01:26:01;;;;;;;5.10;1.83;;;;;;;10.73;82.39;97486.56;4963538;28;20042;-82
2022/12/24 01:28:27;;;;;;;;;;;;;;;10.74;81.75;97482.94;4963561;28;20611;-83
2022/12/24 01:30:53;;;;;;;5.95;1.95;;;;;;;10.69;81.49;97482.78;4963341;28;19952;-83
2022/12/24 01:33:18;;;;;;;5.97;1.58;;;;;;;10.70;81.04;97484.38;4963203;28;20085;-83
2022/12/24 01:35:44;;;;;;;4.88;1.33;;;;;;;10.72;80.76;97496.25;4963572;28;20063;-82
2022/12/24 01:38:11;;;;;;;4.65;1.48;;;;;;;10.75;80.32;97489.00;4961710;28;20043;-82
2022/12/24 01:43:31;;;;;;;9.35;1.75;;;;;;;10.66;80.16;97491.06;4964111;28;20073;-82
2022/12/24 01:46:10;;;;;;;6.25;1.75;;;;;;;10.63;80.79;97500.19;4961103;28;20041;-83
2022/12/24 01:48:46;;;;;;;5.95;1.92;;;;;;;10.52;80.98;97515.78;4963524;28;20035;-82
2022/12/24 01:51:25;;;;;;;10.88;2.28;;;;;;;10.45;80.49;97519.28;4962478;28;20714;-83
2022/12/24 01:54:04;;;;;;;8.43;2.13;;;;;;;10.40;80.02;97515.69;4962653;28;20038;-83
2022/12/24 01:56:34;;;;;;;6.35;2.00;;;;;;;10.35;80.04;97524.16;4961945;28;20089;-83
2022/12/24 01:59:07;;;;;;;8.48;1.90;;;;;;;10.31;79.93;97520.34;4945696;28;20039;-82
2022/12/24 02:01:33;;;;;;;6.78;1.92;;;;;;;10.26;80.20;97528.06;4962335;28;20524;-82
2022/12/24 02:04:04;;;;;;;5.22;1.55;;;;;;;10.24;80.27;97522.22;4944790;28;20390;-83
2022/12/24 02:06:29;;;;;;;3.80;1.75;;;;;;;10.18;79.88;97533.50;4962911;28;20041;-82
2022/12/24 02:08:55;;;;;;;5.72;1.70;;;;;;;10.13;80.59;97534.13;4963163;28;20110;-82
2022/12/24 02:11:21;;;;;;;6.18;1.58;;;;;;;10.09;80.19;97543.44;4962942;28;20046;-83
2022/12/24 02:13:54;;;;;;;5.60;1.85;;;;;;;10.07;80.35;97545.47;4962910;28;20027;-83
2022/12/24 02:16:52;;;;;;;5.97;2.03;;;;;;;10.03;80.04;97548.72;4963043;28;20032;-83
2022/12/24 02:20:15;;;;;;;3.00;1.10;;;;;;;9.94;80.43;97540.28;4963748;28;20547;-83
2022/12/24 02:23:05;;;;;;;8.40;1.83;;;;;;;9.91;80.03;97549.38;4962821;28;20039;-83
2022/12/24 02:26:03;;;;;;;6.05;1.63;;;;;;;9.88;80.56;97559.47;4962580;28;20039;-83
2022/12/24 02:29:17;;;;;;;5.28;2.08;;;;;;;9.85;80.59;97565.94;4964000;28;20382;-82
2022/12/24 02:32:25;;;;;;;6.72;1.80;;;;;;;9.79;82.08;97572.00;4963290;28;20041;-82
2022/12/24 02:35:03;;;;;;;8.27;1.80;;;;;;;9.76;82.42;97556.69;4926691;28;20133;-82
2022/12/24 02:37:36;;;;;;;5.85;2.10;;;;;;;9.72;82.54;97573.84;4963382;28;20038;-83
2022/12/24 02:40:15;;;;;;;9.18;2.25;;;;;;;9.72;82.85;97573.84;4961708;28;20093;-83
2022/12/24 02:42:46;;;;;;;6.82;1.85;;;;;;;9.69;81.43;97583.91;4962729;28;20051;-83
2022/12/24 02:45:22;;;;;;;3.45;1.58;;;;;;;9.62;82.73;97587.34;4946374;28;20043;-83
2022/12/24 02:47:50;;;;;;;7.45;1.65;;;;;;;9.58;81.75;97582.72;4961999;28;20071;-82
2022/12/24 02:50:17;;;;;;;9.00;2.63;;;;;;;9.54;81.88;97587.59;4962209;28;20067;-83
2022/12/24 02:52:45;;;;;;;6.82;1.75;;;;;;;9.51;81.44;97587.19;4962480;28;20043;-83
2022/12/24 02:55:16;;;;;;;8.13;1.90;;;;;;;9.48;81.71;97588.41;4962821;28;20035;-82
2022/12/24 02:58:00;;;;;;;7.07;2.00;;;;;;;9.45;81.54;97595.84;4962981;28;20110;-82
2022/12/24 03:00:38;;;;;;;5.97;1.55;;;;;;;9.46;81.90;97600.88;4958849;28;20043;-83
2022/12/24 03:03:22;;;;;;;5.30;1.98;;;;;;;9.48;81.56;97603.31;4962498;28;20094;-82
2022/12/24 03:05:59;;;;;;;7.72;2.08;;;;;;;9.45;81.35;97603.69;4963105;28;20434;-82
2022/12/24 03:08:38;;;;;;;4.35;1.50;;;;;;;9.41;81.80;97597.25;4960833;28;20039;-82
2022/12/24 03:11:14;;;;;;;5.10;2.13;;;;;;;9.41;81.34;97603.28;4961629;28;20510;-82
2022/12/24 03:13:42;;;;;;;9.88;2.03;;;;;;;9.38;81.52;97612.38;4965505;28;20039;-83
2022/12/24 03:16:16;;;;;;;3.83;1.55;;;;;;;9.29;81.16;97610.97;4965592;28;20041;-82
2022/12/24 03:18:46;;;;;;;4.22;1.67;;;;;;;9.34;81.13;97615.59;4966376;28;20545;-83
2022/12/24 03:21:26;;;;;;;5.13;1.35;;;;;;;9.34;81.32;97619.00;4966058;28;20036;-82
2022/12/24 03:23:54;;;;;;;5.45;1.50;;;;;;;9.34;80.70;97624.25;4965026;28;20110;-82
2022/12/24 03:26:20;;;;;;;7.47;1.65;;;;;;;9.36;81.00;97614.41;4972476;28;20035;-83
2022/12/24 03:28:47;;;;;;;6.47;1.90;;;;;;;9.37;81.18;97618.63;4967747;28;20042;-82
2022/12/24 03:31:14;;;;;;;7.13;1.85;;;;;;;9.37;81.16;97620.44;4966128;28;20027;-82
2022/12/24 03:33:40;;;;;;;5.97;1.58;;;;;;;9.33;81.33;97617.41;4964506;28;20149;-82
2022/12/24 03:36:07;;;;;;;10.70;2.28;;;;;;;9.39;81.08;97627.06;4966780;28;20042;-82
2022/12/24 03:38:34;;;;;;;7.90;1.88;;;;;;;9.37;81.26;97636.94;4966587;28;20035;-82
2022/12/24 03:41:00;;;;;;;9.30;1.85;;;;;;;9.38;81.14;97641.16;4948012;28;20110;-82
2022/12/24 03:43:25;;;;;;;3.33;1.33;;;;;;;9.38;81.37;97635.91;4964656;28;20079;-82
2022/12/24 03:45:51;;;;;;;6.70;1.65;;;;;;;9.32;81.64;97635.94;4962111;28;20041;-82
2022/12/24 03:48:16;;;;;;;6.80;2.05;;;;;;;9.35;81.94;97654.63;4964378;28;20030;-83
2022/12/24 03:50:42;;;;;;;8.30;2.05;;;;;;;9.38;81.73;97661.28;4965598;28;20049;-82
2022/12/24 03:53:07;;;;;;;5.97;1.95;;;;;;;9.39;81.76;97663.69;4966105;28;20082;-83
2022/12/24 03:55:33;;;;;;;4.90;1.70;;;;;;;9.42;82.12;97677.41;4966525;28;20039;-82
2022/12/24 03:57:58;;;;;;;5.32;1.70;;;;;;;9.42;81.71;97678.22;4964385;28;20110;-82
2022/12/24 04:00:24;;;;;;;6.18;1.88;;;;;;;9.46;81.50;97678.59;4965191;28;20085;-82
2022/12/24 04:02:50;;;;;;;8.27;1.85;;;;;;;9.48;82.95;97689.69;4964420;28;20050;-83
2022/12/24 04:05:18;;;;;;;5.65;1.90;;;;;;;9.47;83.34;97685.44;4965634;28;20070;-82
2022/12/24 04:07:45;;;;;;;7.43;2.17;;;;;;;9.46;83.17;97689.06;4964302;28;20042;-83
2022/12/24 04:10:12;;;;;;;10.20;2.13;;;;;;;9.38;82.95;97683.03;4965917;28;20038;-83
2022/12/24 04:12:38;;;;;;;9.63;1.90;;;;;;;9.37;82.36;97691.09;4965575;28;20042;-82
2022/12/24 04:15:04;;;;;;;8.13;1.58;;;;;;;9.37;82.41;97696.34;4966967;28;20035;-82
2022/12/24 04:17:30;;;;;;;9.43;1.90;;;;;;;9.45;82.73;97701.34;4947287;28;20050;-82
2022/12/24 04:19:56;;;;;;;8.18;1.80;;;;;;;9.44;82.27;97696.31;4964528;28;20043;-82
2022/12/24 04:22:21;;;;;;;5.90;1.63;;;;;;;9.43;82.45;97698.16;4964397;28;20058;-82
2022/12/24 04:24:47;;;;;;;11.15;2.15;;;;;;;9.43;82.45;97699.97;4965427;28;20031;-83
2022/12/24 04:27:14;;;;;;;5.53;2.25;;;;;;;9.41;82.50;97701.94;4964174;28;20027;-83
2022/12/24 04:29:39;;;;;;;7.28;1.92;;;;;;;9.35;82.70;97704.34;4965822;28;20041;-83
2022/12/24 04:32:05;;;;;;;5.07;2.00;;;;;;;9.38;81.54;97705.78;4962960;28;20441;-82
2022/12/24 04:34:30;;;;;;;8.10;1.75;;;;;;;9.39;82.15;97721.28;4964490;28;20051;-82
2022/12/24 04:36:56;;;;;;;4.43;1.40;;;;;;;9.43;81.27;97715.66;4965409;28;20034;-82
2022/12/24 04:39:21;;;;;;;8.70;1.83;;;;;;;9.41;81.32;97721.06;4963776;28;20039;-82
2022/12/24 04:41:47;;;;;;;5.82;1.67;;;;;;;9.38;81.17;97719.69;4964275;28;20050;-82
2022/12/24 04:44:12;;;;;;;5.18;1.83;;;;;;;9.48;80.28;97718.50;4964280;28;20130;-83
2022/12/24 04:46:38;;;;;;;10.63;2.03;;;;;;;9.51;80.37;97718.06;4961267;28;20084;-82
2022/12/24 04:49:04;;;;;;;5.85;1.65;;;;;;;9.53;81.13;97722.09;4964000;28;20042;-82
2022/12/24 04:51:30;;;;;;;4.65;1.60;;;;;;;9.49;80.02;97720.09;4961126;28;20069;-82
2022/12/24 04:53:56;;;;;;;6.03;1.77;;;;;;;9.46;79.91;97716.03;4964732;28;20043;-82
2022/12/24 04:56:25;;;;;;;6.82;1.65;;;;;;;9.49;79.25;97715.66;4964474;28;20062;-82
2022/12/24 04:58:51;;;;;;;6.93;1.58;;;;;;;9.54;78.73;97722.91;4964040;28;20031;-82
2022/12/24 05:01:24;;;;;;;7.20;1.45;;;;;;;9.54;78.41;97725.53;4963673;28;20039;-82
2022/12/24 05:03:52;;;;;;;5.90;1.90;;;;;;;9.56;77.33;97732.16;4964016;28;20039;-82
2022/12/24 05:06:25;;;;;;;6.95;2.15;;;;;;;9.54;77.68;97723.72;4965216;28;20046;-82
2022/12/24 05:08:54;;;;;;;6.00;1.85;;;;;;;9.62;77.66;97730.56;4964013;28;20039;-82
2022/12/24 05:11:20;;;;;;;3.85;1.63;;;;;;;9.64;77.65;97728.53;4963741;28;20047;-83
2022/12/24 05:13:46;;;;;;;7.82;1.85;;;;;;;9.66;78.16;97737.00;4963274;28;20038;-83
2022/12/24 05:16:18;;;;;;;6.63;1.40;;;;;;;9.60;78.53;97737.81;4963509;28;20039;-82
2022/12/24 05:18:44;;;;;;;3.55;1.80;;;;;;;9.53;77.92;97737.78;4963966;28;20467;-82
2022/12/24 05:21:17;;;;;;;3.13;1.40;;;;;;;9.58;77.96;97734.56;4964809;28;20054;-83
2022/12/24 05:26:34;;;;;;;3.22;1.40;;;;;;;9.59;78.04;97752.69;4965210;28;20439;-82
2022/12/24 05:29:01;;;;;;;10.60;1.92;;;;;;;9.56;78.71;97750.50;4963207;28;20474;-82
2022/12/24 05:31:30;;;;;;;6.90;1.65;;;;;;;9.58;79.03;97760.75;4962909;28;20046;-82
2022/12/24 05:33:56;;;;;;;4.60;1.90;;;;;;;9.54;78.93;97759.56;4963634;28;20054;-82
2022/12/24 05:36:22;;;;;;;5.53;1.50;;;;;;;9.58;79.19;97768.63;4963889;28;20086;-82
2022/12/24 05:38:49;;;;;;;4.95;1.50;;;;;;;9.56;79.29;97765.41;4964099;28;20070;-82
2022/12/24 05:41:15;;;;;;;5.05;1.40;;;;;;;9.54;80.00;97765.59;4962603;28;20034;-82
2022/12/24 05:43:40;;;;;;;4.97;1.38;;;;;;;9.55;80.18;97771.66;4963977;28;20050;-82
2022/12/24 05:46:10;;;;;;;4.30;1.42;;;;;;;9.52;80.06;97782.50;4961187;28;20106;-82
2022/12/24 05:48:35;;;;;;;7.88;1.42;;;;;;;9.54;80.31;97775.28;4963516;28;20067;-82
2022/12/24 05:51:07;;;;;;;8.10;1.85;;;;;;;9.53;81.26;97774.44;4963496;28;20081;-82
2022/12/24 05:53:34;;;;;;;10.10;2.35;;;;;;;9.52;80.28;97779.88;4962101;28;20504;-82
2022/12/24 05:56:10;;;;;;;4.43;1.42;;;;;;;9.58;80.73;97781.69;4963674;28;20105;-82
2022/12/24 05:58:37;;;;;;;6.97;1.27;;;;;;;9.59;80.80;97772.84;4963489;28;20054;-82
2022/12/24 06:01:04;;;;;;;4.32;1.35;;;;;;;9.56;80.91;97788.97;4962183;28;20035;-82
2022/12/24 06:03:30;;;;;;;5.28;1.27;;;;;;;9.53;80.90;97786.72;4962909;28;20039;-82
2022/12/24 06:06:03;;;;;;;4.03;1.52;;;;;;;9.54;80.68;97788.38;4963709;28;20133;-82
2022/12/24 06:08:30;;;;;;;6.20;1.45;;;;;;;9.52;80.90;97788.53;4962582;28;20089;-82
2022/12/24 06:10:58;;;;;;;5.70;1.80;;;;;;;9.52;80.84;97782.50;4963192;28;20042;-82
2022/12/24 06:13:24;;;;;;;4.40;1.52;;;;;;;9.50;81.24;97787.16;4962335;28;20031;-81
2022/12/24 06:15:54;;;;;;;10.07;2.17;;;;;;;9.49;81.82;97782.91;4963718;28;20381;-82
2022/12/24 06:18:20;;;;;;;6.85;1.70;;;;;;;9.52;81.41;97791.16;4962370;28;20046;-82
2022/12/24 06:20:53;;;;;;;3.35;1.67;;;;;;;9.59;80.95;97788.53;4963078;28;20038;-82
2022/12/24 06:23:19;;;;;;;5.45;1.65;;;;;;;9.59;80.75;97793.78;4963565;28;20064;-82
2022/12/24 06:25:45;;;;;;;7.90;1.75;;;;;;;9.54;81.43;97789.16;4950683;28;20035;-82
2022/12/24 06:28:10;;;;;;;4.93;1.58;;;;;;;9.52;80.91;97787.75;4960975;28;20034;-83
2022/12/24 06:30:36;;;;;;;3.03;1.55;;;;;;;9.58;81.38;97781.69;4961806;28;20541;-82
2022/12/24 06:33:01;;;;;;;4.93;1.42;;;;;;;9.61;81.44;97791.78;4962505;28;20055;-82
2022/12/24 06:35:27;;;;;;;7.65;1.42;;;;;;;9.58;81.11;97800.03;4962409;28;20142;-82
2022/12/24 06:37:52;;;;;;;6.00;1.60;;;;;;;9.56;81.58;97802.06;4962843;28;20056;-82
2022/12/24 06:40:17;;;;;;;9.32;1.75;;;;;;;9.60;81.30;97805.88;4962428;28;20038;-82
2022/12/24 06:42:43;;;;;;;7.82;1.50;;;;;;;9.60;81.37;97800.66;4962936;28;20046;-82
2022/12/24 06:45:09;;;;;;;3.55;1.45;;;;;;;9.61;81.21;97807.50;4960583;28;20077;-82
2022/12/24 06:47:34;;;;;;;6.93;1.75;;;;;;;9.68;81.17;97808.31;4963043;28;20035;-82
2022/12/24 06:50:00;;;;;;;7.18;1.52;;;;;;;9.68;81.88;97803.06;4963810;28;20143;-82
2022/12/24 06:52:25;;;;;;;9.43;1.70;;;;;;;9.73;81.66;97821.59;4965796;28;20058;-82
2022/12/24 06:54:51;;;;;;;5.65;1.90;;;;;;;9.65;81.13;97819.16;4965399;28;20035;-81
2022/12/24 06:57:16;;;;;;;12.82;2.30;;;;;;;9.61;81.63;97829.25;4965327;28;20118;-81
2022/12/24 06:59:42;;;;;;;6.20;1.60;;;;;;;9.60;81.94;97829.47;4948921;28;20533;-81
2022/12/24 07:02:09;;;;;;;5.88;1.95;;;;;;;9.60;82.01;97829.47;4966751;28;20526;-81
2022/12/24 07:04:34;;;;;;;9.40;2.25;;;;;;;9.62;81.99;97827.44;4966196;28;20035;-82
2022/12/24 07:07:00;;;;;;;8.13;1.95;;;;;;;9.64;82.04;97828.03;4965632;28;20537;-82
2022/12/24 07:09:25;;;;;;;8.27;2.22;;;;;;;9.69;82.04;97832.69;4965982;28;20039;-82
2022/12/24 07:11:51;;;;;;;8.40;2.00;;;;;;;9.55;82.74;97822.19;4967023;28;20426;-82
2022/12/24 07:14:16;;;;;;;7.40;1.70;;;;;;;9.67;82.64;97843.34;4959198;28;20126;-82
2022/12/24 07:16:41;;;;;;;7.55;2.47;;;;;;;9.62;83.50;97851.00;4967166;28;20109;-81
2022/12/24 07:19:07;;;;;;;6.70;1.75;;;;;;;9.58;83.84;97863.66;4965656;28;20121;-81
2022/12/24 07:21:32;;;;;;;8.27;2.17;;;;;;;9.57;84.22;97856.03;4965319;28;20035;-82
2022/12/24 07:23:58;;;;;;;7.53;2.28;;;;;;;9.59;84.41;97856.63;4965075;28;20039;-82
2022/12/24 07:26:23;;;;;;;3.88;1.65;;;;;;;9.61;84.62;97865.09;4964150;28;20035;-82
2022/12/24 07:28:49;;;;;;;8.10;1.75;;;;;;;9.57;84.93;97869.13;4963306;28;20035;-82
2022/12/24 07:31:14;;;;;;;5.82;1.95;;;;;;;9.60;84.83;97879.22;4965008;28;20378;-82
2022/12/24 07:33:40;;;;;;;5.32;2.30;;;;;;;9.58;85.12;97855.00;4964914;28;20046;-82
2022/12/24 07:36:13;;;;;;;10.82;2.38;;;;;;;9.53;85.06;97862.66;4964370;28;20382;-82
2022/12/24 07:38:38;;;;;;;10.25;2.17;;;;;;;9.58;85.12;97865.50;4965174;28;20090;-81
2022/12/24 07:41:04;;;;;;;8.15;1.90;;;;;;;9.62;85.38;97879.81;4965118;28;20039;-82
2022/12/24 07:43:32;;;;;;;9.80;1.80;;;;;;;9.58;85.62;97875.97;4965125;28;20117;-82
2022/12/24 07:45:58;;;;;;;7.15;2.00;;;;;;;9.59;85.70;97882.81;4962715;28;20031;-82
2022/12/24 07:48:27;;;;;;;8.20;1.98;;;;;;;9.56;86.02;97875.34;4965423;28;20042;-82
2022/12/24 07:50:53;;;;;;;13.48;2.00;;;;;;;9.55;86.25;97871.94;4965230;28;20051;-82
2022/12/24 07:53:19;;;;;;;10.23;2.38;;;;;;;9.55;86.43;97881.59;4964532;28;20027;-82
2022/12/24 07:55:44;;;;;;;7.72;2.50;;;;;;;9.60;86.21;97882.63;4964719;28;20062;-82
2022/12/24 07:58:10;;;;;;;9.63;2.70;;;;;;;9.64;85.71;97888.25;4965224;28;20114;-82
2022/12/24 08:00:36;;;;;;;10.65;2.80;;;;;;;9.69;85.64;97885.84;4961436;28;20911;-82
2022/12/24 08:03:03;;;;;;;8.60;2.78;;;;;;;9.75;85.31;97892.13;4960788;28;20030;-82
2022/12/24 08:05:33;;;;;;;9.30;2.72;;;;;;;9.77;85.09;97880.41;4964755;28;20050;-82
2022/12/24 08:07:59;;;;;;;7.03;2.10;;;;;;;9.75;85.74;97885.06;4964429;28;21365;-82
2022/12/24 08:10:24;;;;;;;6.40;3.00;;;;;;;9.72;85.45;97887.28;4964521;28;20063;-82
2022/12/24 08:12:50;;;;;;;9.93;3.17;;;;;;;9.83;85.34;97911.06;4963306;28;20122;-81
2022/12/24 08:15:16;;;;;;;11.95;2.72;;;;;;;9.84;84.97;97911.88;4963202;28;20054;-81
2022/12/24 08:17:41;;;;;;;12.85;2.88;;;;;;;9.88;84.72;97903.41;4966524;28;20074;-82
2022/12/24 08:20:08;;;;;;;10.95;2.38;;;;;;;9.87;84.76;97909.66;4963999;28;20446;-82
2022/12/24 08:22:33;;;;;;;9.75;2.42;;;;;;;9.90;84.53;97906.66;4963386;28;20031;-81
2022/12/24 08:24:59;;;;;;;12.57;3.17;;;;;;;9.91;84.68;97910.88;4963564;28;20045;-81
2022/12/24 08:27:24;;;;;;;9.40;2.63;;;;;;;9.89;84.88;97894.53;4963553;28;20118;-80
2022/12/24 08:29:50;;;;;;;7.90;2.55;;;;;;;9.92;85.17;97904.63;4962137;28;20478;-81
2022/12/24 08:32:15;;;;;;;10.48;3.13;;;;;;;9.93;84.58;97911.47;4963715;28;20124;-81
2022/12/24 08:34:41;;;;;;;8.18;2.78;;;;;;;9.98;84.45;97913.50;4964244;28;20693;-81
2022/12/24 08:37:06;;;;;;;10.48;2.80;;;;;;;9.91;83.97;97913.50;4962804;28;20851;-81
2022/12/24 08:39:31;;;;;;;7.38;2.60;;;;;;;9.96;84.42;97904.25;4977632;28;20035;-82
2022/12/24 08:41:57;;;;;;;10.10;2.50;;;;;;;10.03;83.71;97915.53;4965043;28;20033;-82
2022/12/24 08:44:22;;;;;;;14.13;3.50;;;;;;;10.12;84.02;97922.19;4963460;28;20105;-81
2022/12/24 08:46:48;;;;;;;11.07;2.78;;;;;;;10.11;83.54;97917.94;4961896;28;20035;-81
2022/12/24 08:49:13;;;;;;;8.95;2.38;;;;;;;10.13;83.57;97915.94;4964360;28;20113;-82
2022/12/24 08:51:39;;;;;;;12.40;3.47;;;;;;;10.12;83.16;97924.81;4947040;28;20051;-83
2022/12/24 08:54:04;;;;;;;6.32;2.33;;;;;;;10.15;82.97;97942.75;4963181;28;20050;-81
2022/12/24 08:56:30;;;;;;;11.15;2.83;;;;;;;10.13;83.37;97934.28;4963144;28;20137;-81
2022/12/24 08:58:55;;;;;;;10.45;3.05;;;;;;;10.16;83.35;97944.38;4944697;28;20398;-81
2022/12/24 09:01:21;;;;;;;15.25;3.65;;;;;;;10.09;82.53;97946.19;4964445;28;20058;-82
2022/12/24 09:03:47;;;;;;;8.23;2.80;;;;;;;10.18;82.60;97956.25;4963874;28;20043;-81
2022/12/24 09:06:14;;;;;;;7.85;2.63;;;;;;;10.23;82.14;97950.44;4963370;28;20038;-82
2022/12/24 09:08:40;;;;;;;10.38;3.17;;;;;;;10.24;82.14;97972.22;4963711;28;20494;-82
2022/12/24 09:11:14;;;;;;;15.95;3.95;;;;;;;10.23;82.06;97966.16;4962115;28;20109;-81
2022/12/24 09:13:40;;;;;;;12.82;2.92;;;;;;;10.29;81.73;97972.44;4963398;28;20450;-81
2022/12/24 09:16:07;;;;;;;14.25;3.13;;;;;;;10.37;82.30;97973.03;4946237;28;20093;-81
2022/12/24 09:18:33;;;;;;;9.27;2.50;;;;;;;10.38;81.40;97963.38;4964030;28;20110;-81
2022/12/24 09:21:10;;;;;;;10.68;2.80;;;;;;;10.46;82.44;97973.66;4962457;28;20093;-81
2022/12/24 09:23:39;;;;;;;10.98;2.72;;;;;;;10.49;81.37;97973.22;4962595;28;20522;-81
2022/12/24 09:26:13;;;;;;;13.20;2.88;;;;;;;10.45;80.83;97982.53;4963332;28;20045;-81
2022/12/24 09:28:38;;;;;;;13.27;3.85;;;;;;;10.54;81.13;97985.75;4963889;28;20089;-81
2022/12/24 09:31:05;;;;;;;10.40;2.70;;;;;;;10.45;80.64;97993.81;4963044;28;20027;-82
2022/12/24 09:33:35;;;;;;;11.20;3.20;;;;;;;10.44;80.45;97991.41;4960238;28;20059;-82
2022/12/24 09:36:02;;;;;;;5.27;2.33;;;;;;;10.49;81.10;98001.28;4944890;28;20079;-81
2022/12/24 09:38:28;;;;;;;12.73;3.28;;;;;;;10.52;81.58;98004.31;4962811;28;20039;-81
2022/12/24 09:40:55;;;;;;;12.25;3.05;;;;;;;10.52;80.69;98008.75;4963174;28;20057;-82
2022/12/24 09:43:25;;;;;;;19.13;3.25;;;;;;;10.54;80.67;97998.84;4962709;28;20038;-80
2022/12/24 09:46:04;;;;;;;13.77;3.08;;;;;;;10.56;79.81;98007.34;4959513;28;20030;-81
2022/12/24 09:48:36;;;;;;;12.00;3.45;;;;;;;10.61;79.94;97997.03;4962958;28;20054;-81
2022/12/24 09:51:15;;;;;;;10.05;2.42;;;;;;;10.62;78.94;97999.47;4962016;28;20610;-81
2022/12/24 09:54:02;;;;;;;12.32;2.95;;;;;;;10.68;78.29;98016.22;4949457;28;20031;-81
2022/12/24 09:56:42;;;;;;;10.18;3.00;;;;;;;10.76;78.70;98000.28;4959293;28;20050;-82
2022/12/24 09:59:24;;;;;;;8.75;2.67;;;;;;;10.84;78.00;98021.03;4962296;28;20042;-82
2022/12/24 10:01:53;;;;;;;15.52;3.65;;;;;;;10.88;78.55;98014.41;4959379;28;20055;-81
2022/12/24 10:04:30;;;;;;;11.00;3.03;;;;;;;10.86;77.00;98007.75;4960230;28;20051;-82
2022/12/24 10:07:27;;;;;;;11.38;2.80;;;;;;;10.88;78.82;98009.16;4961425;28;20089;-82
2022/12/24 10:10:25;;;;;;;11.82;2.85;;;;;;;10.99;77.29;98016.41;4960671;28;20035;-82
2022/12/24 10:13:32;;;;;;;11.45;2.78;;;;;;;10.98;76.55;98020.03;4928304;28;20085;-82
2022/12/24 10:16:28;;;;;;;11.02;3.08;;;;;;;11.00;76.65;98017.22;4961760;28;20074;-82
2022/12/24 10:19:45;;;;;;;12.35;2.80;;;;;;;10.95;76.48;98023.06;4962036;28;20038;-82
2022/12/24 10:22:39;;;;;;;12.23;2.30;;;;;;;11.01;77.45;98018.81;4926756;29;20127;-82
2022/12/24 10:25:26;;;;;;;14.48;2.78;;;;;;;10.90;76.94;98020.22;4928490;29;20377;-82
2022/12/24 10:27:56;;;;;;;17.83;2.97;;;;;;;10.94;77.28;98018.03;4958671;28;20043;-82
2022/12/24 10:30:23;;;;;;;12.02;2.50;;;;;;;10.94;76.71;98020.66;4965779;28;20039;-82
2022/12/24 10:32:51;;;;;;;12.13;2.55;;;;;;;10.92;76.29;98023.47;4965422;28;20867;-82
2022/12/24 10:35:35;;;;;;;11.43;2.55;;;;;;;10.95;76.84;98017.00;4965629;28;20356;-83
2022/12/24 10:38:03;;;;;;;10.80;2.78;;;;;;;10.94;76.69;98029.31;4966395;28;20134;-82
2022/12/24 10:40:42;;;;;;;11.57;2.60;;;;;;;10.86;76.57;98032.16;4967076;28;20027;-82
2022/12/24 10:43:37;;;;;;;10.75;2.42;;;;;;;10.80;76.91;98027.72;4965967;28;20041;-82
2022/12/24 10:46:15;;;;;;;8.57;2.30;;;;;;;10.81;76.84;98029.34;4963663;28;20101;-82
2022/12/24 10:48:49;;;;;;;14.32;2.83;;;;;;;10.93;76.87;98032.97;4964454;28;20045;-82
2022/12/24 10:51:32;;;;;;;13.20;2.17;;;;;;;11.03;76.60;98022.03;4966100;28;20117;-81
2022/12/24 10:54:07;;;;;;;13.05;2.92;;;;;;;11.07;76.25;98039.00;4966152;28;20027;-82
2022/12/24 10:56:41;;;;;;;14.05;2.92;;;;;;;11.15;76.21;98037.97;4965964;28;20096;-82
2022/12/24 10:59:29;;;;;;;17.08;2.95;;;;;;;11.29;75.75;98049.28;4965583;28;20042;-82
2022/12/24 11:01:58;;;;;;;13.38;2.83;;;;;;;11.18;75.87;98042.81;4966747;28;20043;-82
2022/12/24 11:04:30;;;;;;;13.85;3.03;;;;;;;11.20;76.02;98051.28;4950716;28;20067;-82
2022/12/24 11:07:05;;;;;;;11.82;2.67;;;;;;;11.14;76.80;98060.78;4949833;28;20042;-82
2022/12/24 11:09:40;;;;;;;12.35;2.92;;;;;;;11.06;75.97;98060.22;4967789;28;20039;-81
2022/12/24 11:12:20;;;;;;;10.60;2.90;;;;;;;10.95;77.05;98057.19;4965654;28;20062;-81
2022/12/24 11:14:46;;;;;;;14.30;3.25;;;;;;;10.99;76.37;98061.00;4967715;28;20034;-82
2022/12/24 11:17:22;;;;;;;9.52;2.25;;;;;;;11.09;77.08;98050.09;4967098;28;20562;-81
2022/12/24 11:19:49;;;;;;;12.02;2.85;;;;;;;11.05;76.67;98037.59;4966558;28;20035;-82
2022/12/24 11:22:24;;;;;;;10.38;3.05;;;;;;;11.01;78.33;98046.88;4966391;28;20039;-82
2022/12/24 11:25:23;;;;;;;7.50;2.75;;;;;;;10.98;77.55;98042.84;4965644;28;20031;-81
2022/12/24 11:27:50;;;;;;;14.30;3.28;;;;;;;11.11;76.45;98048.09;4966510;28;20038;-81
2022/12/24 11:30:15;;;;;;;16.05;4.07;;;;;;;11.12;75.88;98048.91;4964045;28;20055;-83
2022/12/24 11:32:43;;;;;;;11.07;3.10;;;;;;;11.27;75.79;98044.22;4965860;28;20456;-81
2022/12/24 11:35:20;;;;;;;11.27;3.40;;;;;;;11.39;75.42;98052.25;4965677;28;20053;-82
2022/12/24 11:38:07;;;;;;;14.60;2.78;;;;;;;11.43;75.78;98043.78;4966418;28;20039;-83
2022/12/24 11:40:37;;;;;;;10.05;2.83;;;;;;;11.39;76.10;98049.63;4966398;28;20104;-82
2022/12/24 11:43:05;;;;;;;11.48;2.83;;;;;;;11.23;76.09;98045.66;4965528;28;20465;-82
2022/12/24 11:45:33;;;;;;;13.13;2.88;;;;;;;11.22;77.68;98041.41;4961554;28;20049;-82
2022/12/24 11:47:59;;;;;;;12.90;3.22;;;;;;;11.15;77.24;98041.41;4948201;28;20038;-82
2022/12/24 11:50:35;;;;;;;10.80;2.60;;;;;;;11.04;76.62;98036.00;4948348;28;20042;-82
2022/12/24 11:53:17;;;;;;;13.75;3.20;;;;;;;11.13;76.65;98042.63;4964243;28;20039;-82
2022/12/24 11:55:59;;;;;;;9.98;2.80;;;;;;;11.10;76.35;98035.97;4965629;28;20046;-82